sensor_id;sensor_type;location;lat;lon;timestamp;pressure;altitude;pressure_sealevel;temperature;humidity
70254;BME280;57649;42.968;1.608;2023-03-25T00:02:22;97751.53;;;10.38;94.71
70254;BME280;57649;42.968;1.608;2023-03-25T00:04:49;97756.06;;;10.37;96.13
70254;BME280;57649;42.968;1.608;2023-03-25T00:07:16;97764.22;;;10.36;97.06
70254;BME280;57649;42.968;1.608;2023-03-25T00:09:42;97756.69;;;10.31;96.07
70254;BME280;57649;42.968;1.608;2023-03-25T00:12:08;97758.34;;;10.32;97.02
70254;BME280;57649;42.968;1.608;2023-03-25T00:14:33;97760.09;;;10.24;96.99
70254;BME280;57649;42.968;1.608;2023-03-25T00:16:59;97759.28;;;10.23;97.41
70254;BME280;57649;42.968;1.608;2023-03-25T00:19:26;97764.78;;;10.21;98.58
70254;BME280;57649;42.968;1.608;2023-03-25T00:21:51;97752.94;;;10.24;97.23
70254;BME280;57649;42.968;1.608;2023-03-25T00:24:18;97760.31;;;10.30;97.14
70254;BME280;57649;42.968;1.608;2023-03-25T00:26:45;97755.09;;;10.20;97.93
70254;BME280;57649;42.968;1.608;2023-03-25T00:29:11;97753.38;;;10.19;98.63
70254;BME280;57649;42.968;1.608;2023-03-25T00:31:37;97757.69;;;10.12;98.74
70254;BME280;57649;42.968;1.608;2023-03-25T00:34:03;97757.66;;;10.04;97.10
70254;BME280;57649;42.968;1.608;2023-03-25T00:36:29;97758.72;;;9.93;97.46
70254;BME280;57649;42.968;1.608;2023-03-25T00:38:54;97766.59;;;9.95;98.83
70254;BME280;57649;42.968;1.608;2023-03-25T00:41:23;97762.78;;;9.79;96.62
70254;BME280;57649;42.968;1.608;2023-03-25T00:43:53;97754.03;;;9.69;95.84
70254;BME280;57649;42.968;1.608;2023-03-25T00:46:20;97766.84;;;9.83;95.83
70254;BME280;57649;42.968;1.608;2023-03-25T00:48:47;97774.72;;;9.49;95.57
70254;BME280;57649;42.968;1.608;2023-03-25T00:51:12;97776.53;;;9.49;97.06
70254;BME280;57649;42.968;1.608;2023-03-25T00:53:44;97768.84;;;9.46;98.39
70254;BME280;57649;42.968;1.608;2023-03-25T00:56:10;97776.63;;;9.39;99.44
70254;BME280;57649;42.968;1.608;2023-03-25T00:58:36;97786.38;;;9.30;100.00
70254;BME280;57649;42.968;1.608;2023-03-25T01:01:08;97787.97;;;9.23;100.00
70254;BME280;57649;42.968;1.608;2023-03-25T01:03:35;97799.94;;;9.19;100.00
70254;BME280;57649;42.968;1.608;2023-03-25T01:06:01;97786.78;;;9.08;97.93
70254;BME280;57649;42.968;1.608;2023-03-25T01:08:27;97801.84;;;9.09;100.00
70254;BME280;57649;42.968;1.608;2023-03-25T01:10:54;97799.16;;;9.09;100.00
70254;BME280;57649;42.968;1.608;2023-03-25T01:13:21;97808.44;;;9.04;99.82
70254;BME280;57649;42.968;1.608;2023-03-25T01:15:47;97795.91;;;8.87;99.55
70254;BME280;57649;42.968;1.608;2023-03-25T01:18:13;97799.25;;;8.89;99.94
70254;BME280;57649;42.968;1.608;2023-03-25T01:20:39;97808.09;;;8.90;100.00
70254;BME280;57649;42.968;1.608;2023-03-25T01:23:05;97800.44;;;8.77;100.00
70254;BME280;57649;42.968;1.608;2023-03-25T01:25:30;97809.09;;;8.89;100.00
70254;BME280;57649;42.968;1.608;2023-03-25T01:27:56;97804.78;;;8.78;100.00
70254;BME280;57649;42.968;1.608;2023-03-25T01:30:21;97798.34;;;8.71;100.00
70254;BME280;57649;42.968;1.608;2023-03-25T01:32:47;97794.31;;;8.66;100.00
70254;BME280;57649;42.968;1.608;2023-03-25T01:35:12;97794.31;;;8.57;99.21
70254;BME280;57649;42.968;1.608;2023-03-25T01:37:37;97789.59;;;8.51;97.43
70254;BME280;57649;42.968;1.608;2023-03-25T01:40:04;97787.66;;;8.43;97.52
70254;BME280;57649;42.968;1.608;2023-03-25T01:42:32;97775.56;;;8.29;98.72
70254;BME280;57649;42.968;1.608;2023-03-25T01:45:15;97776.56;;;8.18;98.51
70254;BME280;57649;42.968;1.608;2023-03-25T01:47:43;97772.34;;;8.25;97.92
70254;BME280;57649;42.968;1.608;2023-03-25T01:50:10;97762.50;;;8.26;97.84
70254;BME280;57649;42.968;1.608;2023-03-25T01:52:41;97764.78;;;8.21;97.51
70254;BME280;57649;42.968;1.608;2023-03-25T01:55:09;97764.09;;;8.19;97.01
70254;BME280;57649;42.968;1.608;2023-03-25T01:57:36;97759.47;;;8.11;98.54
70254;BME280;57649;42.968;1.608;2023-03-25T02:00:05;97745.88;;;7.95;98.91
70254;BME280;57649;42.968;1.608;2023-03-25T02:02:33;97755.00;;;8.02;98.80
70254;BME280;57649;42.968;1.608;2023-03-25T02:05:11;97761.44;;;8.09;98.80
70254;BME280;57649;42.968;1.608;2023-03-25T02:07:43;97759.06;;;8.06;98.79
70254;BME280;57649;42.968;1.608;2023-03-25T02:10:12;97761.00;;;8.04;99.07
70254;BME280;57649;42.968;1.608;2023-03-25T02:12:38;97747.53;;;8.15;99.13
70254;BME280;57649;42.968;1.608;2023-03-25T02:15:06;97749.97;;;7.89;99.26
70254;BME280;57649;42.968;1.608;2023-03-25T02:20:36;97768.19;;;7.84;98.56
70254;BME280;57649;42.968;1.608;2023-03-25T02:25:42;97754.63;;;7.58;99.18
70254;BME280;57649;42.968;1.608;2023-03-25T02:28:29;97767.41;;;7.64;98.57
70254;BME280;57649;42.968;1.608;2023-03-25T02:31:20;97762.22;;;7.62;95.88
70254;BME280;57649;42.968;1.608;2023-03-25T02:42:24;97780.13;;;7.50;96.44
70254;BME280;57649;42.968;1.608;2023-03-25T02:45:02;97775.09;;;7.47;98.17
70254;BME280;57649;42.968;1.608;2023-03-25T02:47:36;97762.75;;;7.37;98.70
70254;BME280;57649;42.968;1.608;2023-03-25T02:50:09;97769.34;;;7.42;97.15
70254;BME280;57649;42.968;1.608;2023-03-25T02:53:00;97759.09;;;7.28;96.63
70254;BME280;57649;42.968;1.608;2023-03-25T02:55:25;97763.44;;;7.29;95.32
70254;BME280;57649;42.968;1.608;2023-03-25T02:57:56;97766.91;;;7.20;95.04
70254;BME280;57649;42.968;1.608;2023-03-25T03:00:25;97770.16;;;7.23;94.52
70254;BME280;57649;42.968;1.608;2023-03-25T03:02:57;97766.94;;;7.29;94.70
70254;BME280;57649;42.968;1.608;2023-03-25T03:10:35;97747.00;;;7.04;98.89
70254;BME280;57649;42.968;1.608;2023-03-25T03:18:59;97755.13;;;7.03;100.00
70254;BME280;57649;42.968;1.608;2023-03-25T03:21:39;97752.56;;;6.82;100.00
70254;BME280;57649;42.968;1.608;2023-03-25T03:24:43;97747.06;;;6.73;100.00
70254;BME280;57649;42.968;1.608;2023-03-25T03:27:08;97751.56;;;6.83;100.00
70254;BME280;57649;42.968;1.608;2023-03-25T03:29:55;97746.25;;;6.83;100.00
70254;BME280;57649;42.968;1.608;2023-03-25T03:32:33;97752.84;;;6.79;100.00
70254;BME280;57649;42.968;1.608;2023-03-25T03:35:09;97734.59;;;6.74;100.00
70254;BME280;57649;42.968;1.608;2023-03-25T03:37:43;97744.16;;;6.77;100.00
70254;BME280;57649;42.968;1.608;2023-03-25T03:40:16;97740.91;;;6.73;100.00
70254;BME280;57649;42.968;1.608;2023-03-25T03:45:37;97742.31;;;6.67;100.00
70254;BME280;57649;42.968;1.608;2023-03-25T03:48:10;97746.91;;;6.65;100.00
70254;BME280;57649;42.968;1.608;2023-03-25T03:50:44;97744.06;;;6.57;100.00
70254;BME280;57649;42.968;1.608;2023-03-25T03:53:11;97741.97;;;6.51;100.00
70254;BME280;57649;42.968;1.608;2023-03-25T03:55:46;97745.44;;;6.42;100.00
70254;BME280;57649;42.968;1.608;2023-03-25T03:58:20;97746.94;;;6.34;99.93
70254;BME280;57649;42.968;1.608;2023-03-25T04:01:08;97739.22;;;6.31;97.57
70254;BME280;57649;42.968;1.608;2023-03-25T04:06:14;97740.59;;;6.26;99.11
70254;BME280;57649;42.968;1.608;2023-03-25T04:08:54;97733.19;;;6.29;100.00
70254;BME280;57649;42.968;1.608;2023-03-25T04:11:26;97729.69;;;6.29;100.00
70254;BME280;57649;42.968;1.608;2023-03-25T04:13:57;97737.09;;;6.25;100.00
70254;BME280;57649;42.968;1.608;2023-03-25T04:16:24;97743.25;;;6.26;97.85
70254;BME280;57649;42.968;1.608;2023-03-25T04:18:49;97748.81;;;6.23;97.47
70254;BME280;57649;42.968;1.608;2023-03-25T04:21:19;97749.94;;;6.20;96.78
70254;BME280;57649;42.968;1.608;2023-03-25T04:23:44;97752.94;;;6.06;96.63
70254;BME280;57649;42.968;1.608;2023-03-25T04:26:11;97754.31;;;6.21;95.77
70254;BME280;57649;42.968;1.608;2023-03-25T04:28:37;97753.44;;;6.21;96.01
70254;BME280;57649;42.968;1.608;2023-03-25T04:31:11;97760.41;;;6.12;94.96
70254;BME280;57649;42.968;1.608;2023-03-25T04:33:43;97765.13;;;6.08;95.37
70254;BME280;57649;42.968;1.608;2023-03-25T04:36:12;97759.81;;;6.08;95.49
70254;BME280;57649;42.968;1.608;2023-03-25T04:38:38;97764.09;;;6.00;95.51
70254;BME280;57649;42.968;1.608;2023-03-25T04:41:05;97768.75;;;6.07;95.60
70254;BME280;57649;42.968;1.608;2023-03-25T04:43:31;97771.72;;;5.93;97.04
70254;BME280;57649;42.968;1.608;2023-03-25T04:45:57;97770.88;;;5.92;97.43
70254;BME280;57649;42.968;1.608;2023-03-25T04:48:26;97779.56;;;5.94;96.72
70254;BME280;57649;42.968;1.608;2023-03-25T04:51:00;97778.84;;;5.92;96.49
70254;BME280;57649;42.968;1.608;2023-03-25T04:53:28;97784.03;;;5.94;96.53
70254;BME280;57649;42.968;1.608;2023-03-25T04:55:54;97782.88;;;5.87;94.76
70254;BME280;57649;42.968;1.608;2023-03-25T04:58:20;97788.44;;;5.84;93.83
70254;BME280;57649;42.968;1.608;2023-03-25T05:00:49;97802.59;;;5.73;94.36
70254;BME280;57649;42.968;1.608;2023-03-25T05:03:16;97805.91;;;5.65;94.07
70254;BME280;57649;42.968;1.608;2023-03-25T05:05:42;97802.78;;;5.60;95.76
70254;BME280;57649;42.968;1.608;2023-03-25T05:08:07;97786.00;;;5.59;95.92
70254;BME280;57649;42.968;1.608;2023-03-25T05:10:33;97785.88;;;5.61;96.49
70254;BME280;57649;42.968;1.608;2023-03-25T05:13:05;97788.44;;;5.63;98.10
70254;BME280;57649;42.968;1.608;2023-03-25T05:15:32;97789.25;;;5.63;98.38
70254;BME280;57649;42.968;1.608;2023-03-25T05:18:04;97805.59;;;5.47;99.52
70254;BME280;57649;42.968;1.608;2023-03-25T05:20:30;97798.22;;;5.51;99.28
70254;BME280;57649;42.968;1.608;2023-03-25T05:22:59;97798.75;;;5.45;100.00
70254;BME280;57649;42.968;1.608;2023-03-25T05:25:24;97800.19;;;5.49;100.00
70254;BME280;57649;42.968;1.608;2023-03-25T05:27:50;97799.59;;;5.45;100.00
70254;BME280;57649;42.968;1.608;2023-03-25T05:30:15;97803.22;;;5.33;100.00
70254;BME280;57649;42.968;1.608;2023-03-25T05:32:41;97801.78;;;5.40;99.31
70254;BME280;57649;42.968;1.608;2023-03-25T05:35:09;97790.47;;;5.27;100.00
70254;BME280;57649;42.968;1.608;2023-03-25T05:37:35;97803.00;;;5.36;100.00
70254;BME280;57649;42.968;1.608;2023-03-25T05:40:02;97805.19;;;5.31;100.00
70254;BME280;57649;42.968;1.608;2023-03-25T05:42:28;97819.44;;;5.30;100.00
70254;BME280;57649;42.968;1.608;2023-03-25T05:44:53;97817.97;;;5.37;100.00
70254;BME280;57649;42.968;1.608;2023-03-25T05:47:21;97821.34;;;5.39;100.00
70254;BME280;57649;42.968;1.608;2023-03-25T05:49:48;97825.22;;;5.35;100.00
70254;BME280;57649;42.968;1.608;2023-03-25T05:52:15;97830.97;;;5.40;100.00
70254;BME280;57649;42.968;1.608;2023-03-25T05:54:42;97826.13;;;5.45;100.00
70254;BME280;57649;42.968;1.608;2023-03-25T05:57:08;97815.91;;;5.40;100.00
70254;BME280;57649;42.968;1.608;2023-03-25T05:59:34;97824.34;;;5.34;99.57
70254;BME280;57649;42.968;1.608;2023-03-25T06:02:06;97826.66;;;5.39;100.00
70254;BME280;57649;42.968;1.608;2023-03-25T06:04:33;97826.28;;;5.32;99.70
70254;BME280;57649;42.968;1.608;2023-03-25T06:07:05;97819.03;;;5.34;99.91
70254;BME280;57649;42.968;1.608;2023-03-25T06:09:33;97836.88;;;5.44;99.27
70254;BME280;57649;42.968;1.608;2023-03-25T06:11:59;97833.91;;;5.37;98.69
70254;BME280;57649;42.968;1.608;2023-03-25T06:14:26;97834.16;;;5.23;97.40
70254;BME280;57649;42.968;1.608;2023-03-25T06:16:51;97846.09;;;5.28;97.13
70254;BME280;57649;42.968;1.608;2023-03-25T06:19:16;97839.09;;;5.27;98.73
70254;BME280;57649;42.968;1.608;2023-03-25T06:21:42;97841.63;;;5.29;100.00
70254;BME280;57649;42.968;1.608;2023-03-25T06:24:08;97830.97;;;5.40;100.00
70254;BME280;57649;42.968;1.608;2023-03-25T06:26:33;97845.59;;;5.34;100.00
70254;BME280;57649;42.968;1.608;2023-03-25T06:28:58;97833.66;;;5.29;100.00
70254;BME280;57649;42.968;1.608;2023-03-25T06:31:25;97837.03;;;5.31;100.00
70254;BME280;57649;42.968;1.608;2023-03-25T06:33:51;97852.25;;;5.29;100.00
70254;BME280;57649;42.968;1.608;2023-03-25T06:36:18;97849.84;;;5.37;100.00
70254;BME280;57649;42.968;1.608;2023-03-25T06:38:48;97853.44;;;5.36;99.17
70254;BME280;57649;42.968;1.608;2023-03-25T06:41:15;97863.69;;;5.29;98.64
70254;BME280;57649;42.968;1.608;2023-03-25T06:43:45;97861.41;;;5.36;97.41
70254;BME280;57649;42.968;1.608;2023-03-25T06:46:11;97874.91;;;5.33;99.89
70254;BME280;57649;42.968;1.608;2023-03-25T06:48:36;97871.53;;;5.42;99.59
70254;BME280;57649;42.968;1.608;2023-03-25T06:51:02;97881.31;;;5.42;99.04
70254;BME280;57649;42.968;1.608;2023-03-25T06:53:27;97870.69;;;5.42;100.00
70254;BME280;57649;42.968;1.608;2023-03-25T06:55:55;97873.94;;;5.45;100.00
70254;BME280;57649;42.968;1.608;2023-03-25T06:58:21;97879.47;;;5.53;100.00
70254;BME280;57649;42.968;1.608;2023-03-25T07:00:46;97869.44;;;5.57;100.00
70254;BME280;57649;42.968;1.608;2023-03-25T07:03:12;97869.31;;;5.58;100.00
70254;BME280;57649;42.968;1.608;2023-03-25T07:05:40;97863.47;;;5.76;99.34
70254;BME280;57649;42.968;1.608;2023-03-25T07:08:05;97865.88;;;5.79;97.62
70254;BME280;57649;42.968;1.608;2023-03-25T07:10:31;97871.50;;;5.86;97.40
70254;BME280;57649;42.968;1.608;2023-03-25T07:12:56;97877.38;;;6.12;97.79
70254;BME280;57649;42.968;1.608;2023-03-25T07:15:21;97877.59;;;6.09;97.29
70254;BME280;57649;42.968;1.608;2023-03-25T07:17:47;97881.19;;;6.19;98.32
70254;BME280;57649;42.968;1.608;2023-03-25T07:20:13;97886.50;;;6.19;97.23
70254;BME280;57649;42.968;1.608;2023-03-25T07:22:39;97866.13;;;6.29;96.52
70254;BME280;57649;42.968;1.608;2023-03-25T07:25:04;97870.88;;;6.47;94.80
70254;BME280;57649;42.968;1.608;2023-03-25T07:27:30;97870.72;;;6.69;94.76
70254;BME280;57649;42.968;1.608;2023-03-25T07:29:55;97867.38;;;6.77;95.48
70254;BME280;57649;42.968;1.608;2023-03-25T07:32:21;97870.63;;;6.81;95.98
70254;BME280;57649;42.968;1.608;2023-03-25T07:34:46;97869.31;;;6.96;95.71
70254;BME280;57649;42.968;1.608;2023-03-25T07:37:12;97850.63;;;6.86;95.18
70254;BME280;57649;42.968;1.608;2023-03-25T07:39:37;97849.72;;;7.07;95.27
70254;BME280;57649;42.968;1.608;2023-03-25T07:42:04;97853.38;;;7.16;94.85
70254;BME280;57649;42.968;1.608;2023-03-25T07:44:30;97863.78;;;7.19;94.76
70254;BME280;57649;42.968;1.608;2023-03-25T07:46:55;97863.28;;;7.35;93.74
70254;BME280;57649;42.968;1.608;2023-03-25T07:49:21;97865.63;;;7.38;93.88
70254;BME280;57649;42.968;1.608;2023-03-25T07:51:46;97857.69;;;7.57;94.15
70254;BME280;57649;42.968;1.608;2023-03-25T07:54:12;97852.22;;;7.59;93.25
70254;BME280;57649;42.968;1.608;2023-03-25T07:56:37;97862.88;;;7.78;92.39
70254;BME280;57649;42.968;1.608;2023-03-25T07:59:03;97848.88;;;7.76;91.88
70254;BME280;57649;42.968;1.608;2023-03-25T08:01:29;97852.66;;;7.83;92.93
70254;BME280;57649;42.968;1.608;2023-03-25T08:03:55;97848.72;;;7.87;92.97
70254;BME280;57649;42.968;1.608;2023-03-25T08:06:20;97837.94;;;7.99;92.99
70254;BME280;57649;42.968;1.608;2023-03-25T08:08:46;97841.44;;;8.09;93.44
70254;BME280;57649;42.968;1.608;2023-03-25T08:11:11;97836.66;;;8.03;93.61
70254;BME280;57649;42.968;1.608;2023-03-25T08:13:37;97826.44;;;8.08;93.67
70254;BME280;57649;42.968;1.608;2023-03-25T08:16:09;97817.13;;;8.22;93.28
70254;BME280;57649;42.968;1.608;2023-03-25T08:18:35;97818.53;;;8.45;89.53
70254;BME280;57649;42.968;1.608;2023-03-25T08:21:01;97809.22;;;8.59;89.19
70254;BME280;57649;42.968;1.608;2023-03-25T08:23:26;97812.28;;;8.64;89.60
70254;BME280;57649;42.968;1.608;2023-03-25T08:25:51;97802.75;;;8.62;90.72
70254;BME280;57649;42.968;1.608;2023-03-25T08:28:19;97800.22;;;8.88;90.18
70254;BME280;57649;42.968;1.608;2023-03-25T08:30:51;97793.81;;;9.36;86.48
70254;BME280;57649;42.968;1.608;2023-03-25T08:33:24;97780.22;;;9.66;85.22
70254;BME280;57649;42.968;1.608;2023-03-25T08:35:59;97772.41;;;10.16;84.47
70254;BME280;57649;42.968;1.608;2023-03-25T08:38:26;97771.84;;;10.49;80.66
70254;BME280;57649;42.968;1.608;2023-03-25T08:40:56;97765.59;;;11.09;75.83
70254;BME280;57649;42.968;1.608;2023-03-25T08:43:21;97762.19;;;11.74;73.48
70254;BME280;57649;42.968;1.608;2023-03-25T08:45:47;97748.28;;;12.28;70.74
70254;BME280;57649;42.968;1.608;2023-03-25T08:48:12;97743.38;;;12.87;68.84
70254;BME280;57649;42.968;1.608;2023-03-25T08:50:37;97758.03;;;13.24;67.13
70254;BME280;57649;42.968;1.608;2023-03-25T08:53:03;97760.91;;;13.54;65.50
70254;BME280;57649;42.968;1.608;2023-03-25T08:55:28;97770.03;;;13.91;65.67
70254;BME280;57649;42.968;1.608;2023-03-25T08:57:53;97759.66;;;14.26;62.51
70254;BME280;57649;42.968;1.608;2023-03-25T09:00:19;97764.03;;;14.42;62.92
70254;BME280;57649;42.968;1.608;2023-03-25T09:02:48;97755.78;;;14.43;62.10
70254;BME280;57649;42.968;1.608;2023-03-25T09:05:14;97755.06;;;14.65;60.32
70254;BME280;57649;42.968;1.608;2023-03-25T09:07:40;97756.75;;;14.66;58.09
70254;BME280;57649;42.968;1.608;2023-03-25T09:10:06;97747.44;;;14.83;59.24
70254;BME280;57649;42.968;1.608;2023-03-25T09:12:32;97753.53;;;15.21;58.84
70254;BME280;57649;42.968;1.608;2023-03-25T09:14:58;97745.69;;;15.42;56.96
70254;BME280;57649;42.968;1.608;2023-03-25T09:17:23;97741.63;;;15.89;54.89
70254;BME280;57649;42.968;1.608;2023-03-25T09:19:49;97740.75;;;16.10;53.90
70254;BME280;57649;42.968;1.608;2023-03-25T09:22:15;97732.75;;;15.95;52.39
70254;BME280;57649;42.968;1.608;2023-03-25T09:24:41;97736.75;;;15.99;48.97
70254;BME280;57649;42.968;1.608;2023-03-25T09:27:07;97736.53;;;16.01;49.61
70254;BME280;57649;42.968;1.608;2023-03-25T09:29:32;97728.50;;;16.07;48.05
70254;BME280;57649;42.968;1.608;2023-03-25T09:31:58;97740.22;;;15.93;47.21
70254;BME280;57649;42.968;1.608;2023-03-25T09:34:24;97743.44;;;15.45;47.36
70254;BME280;57649;42.968;1.608;2023-03-25T09:36:49;97749.69;;;15.67;47.86
70254;BME280;57649;42.968;1.608;2023-03-25T09:39:25;97743.63;;;15.80;48.03
70254;BME280;57649;42.968;1.608;2023-03-25T09:47:23;97747.09;;;15.74;49.35
70254;BME280;57649;42.968;1.608;2023-03-25T09:49:53;97730.09;;;16.02;46.52
70254;BME280;57649;42.968;1.608;2023-03-25T09:52:25;97738.22;;;16.02;45.67
70254;BME280;57649;42.968;1.608;2023-03-25T09:55:06;97736.66;;;16.14;47.32
70254;BME280;57649;42.968;1.608;2023-03-25T09:57:39;97721.84;;;16.10;47.93
70254;BME280;57649;42.968;1.608;2023-03-25T10:00:19;97736.38;;;16.30;47.92
70254;BME280;57649;42.968;1.608;2023-03-25T10:03:01;97720.38;;;16.64;48.18
70254;BME280;57649;42.968;1.608;2023-03-25T10:08:42;97714.69;;;16.87;46.46
70254;BME280;57649;42.968;1.608;2023-03-25T10:11:20;97711.16;;;16.86;45.99
70254;BME280;57649;42.968;1.608;2023-03-25T10:13:54;97702.47;;;16.63;46.65
70254;BME280;57649;42.968;1.608;2023-03-25T10:22:11;97701.59;;;16.90;44.97
70254;BME280;57649;42.968;1.608;2023-03-25T10:25:11;97690.69;;;17.25;47.10
70254;BME280;57649;42.968;1.608;2023-03-25T10:27:43;97693.84;;;17.29;45.57
70254;BME280;57649;42.968;1.608;2023-03-25T10:33:01;97678.81;;;17.13;45.12
70254;BME280;57649;42.968;1.608;2023-03-25T10:35:31;97667.19;;;17.19;44.92
70254;BME280;57649;42.968;1.608;2023-03-25T10:38:06;97652.66;;;17.40;45.37
70254;BME280;57649;42.968;1.608;2023-03-25T10:40:40;97652.63;;;17.27;44.91
70254;BME280;57649;42.968;1.608;2023-03-25T10:43:30;97641.38;;;17.17;45.05
70254;BME280;57649;42.968;1.608;2023-03-25T10:45:59;97625.78;;;17.32;45.17
70254;BME280;57649;42.968;1.608;2023-03-25T10:48:30;97632.41;;;17.09;44.34
70254;BME280;57649;42.968;1.608;2023-03-25T10:51:09;97638.94;;;17.48;44.71
70254;BME280;57649;42.968;1.608;2023-03-25T10:53:35;97626.03;;;17.44;44.71
70254;BME280;57649;42.968;1.608;2023-03-25T10:56:25;97633.94;;;17.72;43.71
70254;BME280;57649;42.968;1.608;2023-03-25T10:58:56;97646.56;;;17.11;43.26
70254;BME280;57649;42.968;1.608;2023-03-25T11:01:39;97631.03;;;17.67;43.06
70254;BME280;57649;42.968;1.608;2023-03-25T11:04:06;97630.84;;;18.08;42.97
70254;BME280;57649;42.968;1.608;2023-03-25T11:06:36;97629.16;;;18.07;43.13
70254;BME280;57649;42.968;1.608;2023-03-25T11:11:35;97617.72;;;17.79;43.26
70254;BME280;57649;42.968;1.608;2023-03-25T11:14:02;97615.84;;;17.93;42.50
70254;BME280;57649;42.968;1.608;2023-03-25T11:16:40;97620.22;;;18.07;42.21
70254;BME280;57649;42.968;1.608;2023-03-25T11:19:58;97605.75;;;18.40;42.73
70254;BME280;57649;42.968;1.608;2023-03-25T11:22:11;97603.78;;;17.88;42.64
70254;BME280;57649;42.968;1.608;2023-03-25T11:24:43;97606.88;;;17.85;41.75
70254;BME280;57649;42.968;1.608;2023-03-25T11:27:14;97586.41;;;18.23;42.58
70254;BME280;57649;42.968;1.608;2023-03-25T11:29:41;97587.41;;;18.35;41.76
70254;BME280;57649;42.968;1.608;2023-03-25T11:32:14;97592.94;;;18.60;42.45
70254;BME280;57649;42.968;1.608;2023-03-25T11:34:40;97589.09;;;18.30;42.10
70254;BME280;57649;42.968;1.608;2023-03-25T11:37:19;97585.28;;;18.51;41.19
70254;BME280;57649;42.968;1.608;2023-03-25T11:39:50;97583.16;;;18.59;41.84
70254;BME280;57649;42.968;1.608;2023-03-25T11:42:27;97583.75;;;17.76;42.75
70254;BME280;57649;42.968;1.608;2023-03-25T11:44:56;97575.44;;;17.91;43.51
70254;BME280;57649;42.968;1.608;2023-03-25T11:47:32;97574.13;;;18.20;42.35
70254;BME280;57649;42.968;1.608;2023-03-25T11:49:59;97566.22;;;18.12;42.75
70254;BME280;57649;42.968;1.608;2023-03-25T11:52:42;97558.25;;;18.31;42.53
70254;BME280;57649;42.968;1.608;2023-03-25T11:55:43;97568.63;;;18.47;41.71
70254;BME280;57649;42.968;1.608;2023-03-25T11:58:16;97567.09;;;17.99;43.38
70254;BME280;57649;42.968;1.608;2023-03-25T12:00:51;97572.09;;;17.82;43.66
70254;BME280;57649;42.968;1.608;2023-03-25T12:03:28;97563.56;;;17.85;43.70
70254;BME280;57649;42.968;1.608;2023-03-25T12:08:55;97575.41;;;17.78;44.24
70254;BME280;57649;42.968;1.608;2023-03-25T12:14:37;97567.88;;;18.13;42.94
70254;BME280;57649;42.968;1.608;2023-03-25T12:28:02;97531.69;;;17.87;43.09
70254;BME280;57649;42.968;1.608;2023-03-25T12:30:40;97520.44;;;17.91;43.90
70254;BME280;57649;42.968;1.608;2023-03-25T12:33:30;97524.22;;;17.63;43.88
70254;BME280;57649;42.968;1.608;2023-03-25T12:42:05;97505.56;;;18.20;43.88
70254;BME280;57649;42.968;1.608;2023-03-25T12:47:16;97481.25;;;17.80;42.70
70254;BME280;57649;42.968;1.608;2023-03-25T12:50:05;97482.84;;;18.14;43.00
70254;BME280;57649;42.968;1.608;2023-03-25T12:55:54;97468.94;;;18.04;43.12
70254;BME280;57649;42.968;1.608;2023-03-25T13:05:40;97436.47;;;17.91;43.53
70254;BME280;57649;42.968;1.608;2023-03-25T13:08:31;97443.44;;;17.53;44.44
70254;BME280;57649;42.968;1.608;2023-03-25T13:11:06;97444.69;;;17.50;44.39
70254;BME280;57649;42.968;1.608;2023-03-25T13:13:34;97433.00;;;17.63;44.44
70254;BME280;57649;42.968;1.608;2023-03-25T13:16:10;97438.00;;;17.66;44.51
70254;BME280;57649;42.968;1.608;2023-03-25T13:21:14;97433.91;;;18.09;44.06
70254;BME280;57649;42.968;1.608;2023-03-25T13:23:41;97421.56;;;17.61;44.01
70254;BME280;57649;42.968;1.608;2023-03-25T13:26:11;97413.34;;;17.95;44.26
70254;BME280;57649;42.968;1.608;2023-03-25T13:28:46;97405.66;;;17.92;44.73
70254;BME280;57649;42.968;1.608;2023-03-25T13:31:16;97409.28;;;17.59;44.10
70254;BME280;57649;42.968;1.608;2023-03-25T13:33:46;97403.81;;;17.72;44.91
70254;BME280;57649;42.968;1.608;2023-03-25T13:38:55;97398.59;;;18.29;43.69
70254;BME280;57649;42.968;1.608;2023-03-25T13:41:29;97395.28;;;18.20;43.51
70254;BME280;57649;42.968;1.608;2023-03-25T13:46:49;97402.84;;;18.50;44.21
70254;BME280;57649;42.968;1.608;2023-03-25T13:51:46;97384.13;;;18.03;43.66
70254;BME280;57649;42.968;1.608;2023-03-25T13:57:07;97362.66;;;17.57;44.06
70254;BME280;57649;42.968;1.608;2023-03-25T14:08:18;97345.13;;;18.68;43.12
70254;BME280;57649;42.968;1.608;2023-03-25T14:13:37;97329.22;;;18.21;43.31
70254;BME280;57649;42.968;1.608;2023-03-25T14:16:07;97327.16;;;17.85;44.67
70254;BME280;57649;42.968;1.608;2023-03-25T14:18:42;97327.53;;;17.95;43.99
70254;BME280;57649;42.968;1.608;2023-03-25T14:21:33;97327.94;;;17.92;43.64
70254;BME280;57649;42.968;1.608;2023-03-25T14:24:01;97328.31;;;18.02;42.71
70254;BME280;57649;42.968;1.608;2023-03-25T14:26:30;97329.31;;;18.08;42.86
70254;BME280;57649;42.968;1.608;2023-03-25T14:29:02;97324.75;;;18.02;42.95
70254;BME280;57649;42.968;1.608;2023-03-25T14:31:31;97326.47;;;18.28;43.31
70254;BME280;57649;42.968;1.608;2023-03-25T14:39:36;97321.00;;;17.58;43.51
70254;BME280;57649;42.968;1.608;2023-03-25T14:42:10;97319.69;;;17.67;44.25
70254;BME280;57649;42.968;1.608;2023-03-25T14:44:51;97321.72;;;17.78;43.54
70254;BME280;57649;42.968;1.608;2023-03-25T14:47:29;97297.75;;;17.82;42.87
70254;BME280;57649;42.968;1.608;2023-03-25T14:50:08;97305.94;;;17.75;43.22
70254;BME280;57649;42.968;1.608;2023-03-25T14:52:51;97312.34;;;17.87;43.57
70254;BME280;57649;42.968;1.608;2023-03-25T14:55:31;97301.97;;;17.71;43.74
70254;BME280;57649;42.968;1.608;2023-03-25T14:58:00;97300.13;;;17.65;44.13
70254;BME280;57649;42.968;1.608;2023-03-25T15:00:40;97290.94;;;17.73;43.73
70254;BME280;57649;42.968;1.608;2023-03-25T15:03:10;97289.41;;;17.83;43.88
70254;BME280;57649;42.968;1.608;2023-03-25T15:05:37;97296.06;;;17.94;43.15
70254;BME280;57649;42.968;1.608;2023-03-25T15:08:13;97288.59;;;17.89;43.19
70254;BME280;57649;42.968;1.608;2023-03-25T15:10:42;97293.91;;;17.64;43.15
70254;BME280;57649;42.968;1.608;2023-03-25T15:13:23;97288.13;;;17.99;43.62
70254;BME280;57649;42.968;1.608;2023-03-25T15:21:09;97286.28;;;18.25;43.26
70254;BME280;57649;42.968;1.608;2023-03-25T15:24:03;97295.91;;;18.21;43.73